Weather at Ghantoot Hotel 1 Helipad

Public forecast

Using degrees Celsius for public forecast. Weather courtesy of forecast.io.

Closest aviation weather report (METAR) to Ghantoot Hotel 1 Helipad

Closest report is Al Maktoum International Airport, 15.0 nm (27.8 km) E.

2024/06/19 04:00 (retrieved 17 minutes ago)

OMDW 190400Z 16008KT CAVOK 36/11 Q1001 NOSIG

Closest aviation forecast (TAF) to Ghantoot Hotel 1 Helipad

Forecast is more than 6 hours old.

Closest forecast is Hamad International Airport, 180.1 nm (333.5 km) W.

2024/06/18 18:00 (retrieved 10 hours ago)

TAF OTHH 181706Z 1818/1924 30008KT CAVOK TEMPO 1818/1822 36007KT TEMPO 1818/1900 VRB03KT BECMG 1907/1909 05009KT